map of LPST home
LPST - Airport
Location
City:  Sintra, Lisboa, Portugal
Name:Sintra AB
Old (Alt.):Air Base Nr 1
ICAO:LPST

Details
Type:Airport (Aerodrome, Airfield)
Use:Military
Latitude:3849'52"N (38.831053)
Longitude:920'22"W (-9.339552)
Datum:WGS 1984
Elevation:440 ft (134 m)
Variation:2.32W (WMM2015 magnetic declination)
0.13 annual change
Runways:1
Longest:5906 × 131 ft (1800 × 40 m), paved

Time
Time Zone:UTC+0 (DST+1)
Local Time:

Weather
METAR:LPST 150000Z VRB01KT 9999 SCT040 14/12 Q1013

Related Locations
Nearby:
Farthest:KTF: 12257 mi / 19726 km
Takaka, TAS, NZ

Find:

   beyond  
but within

Other Information
Maps:
NOTAMs:
Links:
Sources:

  
  • flag of Portugal
  

Sectional Chart

Flight Planning
at skyvector.com

Satellite Image

Google Maps Satellite view

 

Copyright © 2004-2018 Karl L. Swartz. All rights reserved.
The Great Circle Mapper name and logo are trademarks of the Great Circle Mapper.
All other trademarks mentioned herein belong to their respective owners.
Please see credits for attibutions and further copyright information.

  Follow gcmap on Facebook Follow gcmap on Twitter Follow gcmap on Google+ GCmap on LinkedIn

hCard Microformat

Geo Microformat